Time;durP1;ratioP1;P1;durP2;ratioP2;P2;SDS_P1;SDS_P2;PMS_P1;PMS_P2;Temp;Humidity;BMP_temperature;BMP_pressure;BME280_temperature;BME280_humidity;BME280_pressure;Samples;Min_cycle;Max_cycle;Signal;HPM_P1;HPM_P2
2022/12/14 00:00:43;;;;;;;24.35;15.23;;;-2.50;99.90;;;;;;5050635;28;20425;-60
2022/12/14 00:03:10;;;;;;;22.88;14.50;;;-2.60;99.90;;;;;;5050309;28;20420;-60
2022/12/14 00:05:36;;;;;;;24.52;14.98;;;-2.50;99.90;;;;;;5050429;28;20452;-60
2022/12/14 00:08:04;;;;;;;24.38;15.27;;;-2.40;99.90;;;;;;5058122;28;20429;-59
2022/12/14 00:10:32;;;;;;;22.90;14.63;;;-2.20;99.90;;;;;;5065909;28;20421;-60
2022/12/14 00:13:01;;;;;;;22.10;14.77;;;-2.10;99.90;;;;;;5070507;28;20481;-60
2022/12/14 00:15:28;;;;;;;25.05;15.60;;;-2.10;99.90;;;;;;5070456;28;20415;-60
2022/12/14 00:17:55;;;;;;;22.80;14.93;;;-2.20;99.90;;;;;;5069744;28;20481;-60
2022/12/14 00:20:22;;;;;;;23.20;15.73;;;-2.10;99.90;;;;;;5070348;28;20411;-60
2022/12/14 00:22:49;;;;;;;22.98;14.57;;;-2.00;99.90;;;;;;5070356;28;20426;-60
2022/12/14 00:25:15;;;;;;;22.90;14.30;;;-1.90;99.90;;;;;;5070190;28;20898;-60
2022/12/14 00:27:44;;;;;;;23.13;13.95;;;-2.10;85.30;;;;;;5069773;28;20909;-60
2022/12/14 00:30:13;;;;;;;23.02;15.13;;;-2.10;99.90;;;;;;5071951;28;20877;-60
2022/12/14 00:32:40;;;;;;;19.60;13.03;;;-2.20;99.90;;;;;;5073996;28;20445;-60
2022/12/14 00:35:08;;;;;;;22.05;13.10;;;-2.10;99.90;;;;;;5074184;28;20450;-60
2022/12/14 00:37:35;;;;;;;19.13;13.10;;;-2.00;99.90;;;;;;5065770;28;20464;-59
2022/12/14 00:40:03;;;;;;;18.23;11.30;;;-1.90;1.00;;;;;;5062077;28;20416;-60
2022/12/14 00:42:29;;;;;;;17.58;11.65;;;-1.90;1.00;;;;;;5054178;28;20413;-59
2022/12/14 00:44:56;;;;;;;17.83;11.35;;;-2.00;99.90;;;;;;5054065;28;20823;-60
2022/12/14 00:47:24;;;;;;;18.90;11.55;;;-2.10;99.90;;;;;;5053342;28;20425;-59
2022/12/14 00:49:51;;;;;;;18.00;11.10;;;-2.00;99.90;;;;;;5053836;28;20421;-60
2022/12/14 00:52:18;;;;;;;17.73;11.13;;;-2.00;99.90;;;;;;5053295;28;20417;-57
2022/12/14 00:54:44;;;;;;;15.65;10.50;;;-2.00;1.00;;;;;;5053463;28;20412;-60
2022/12/14 00:57:11;;;;;;;15.40;9.53;;;-2.00;99.90;;;;;;5053217;28;20495;-60
2022/12/14 00:59:38;;;;;;;15.35;9.30;;;-2.00;99.90;;;;;;5053296;28;20459;-60
2022/12/14 01:02:05;;;;;;;14.80;9.67;;;-2.00;1.00;;;;;;5053183;28;20930;-62
2022/12/14 01:04:33;;;;;;;15.50;9.57;;;-2.10;1.00;;;;;;5053423;28;20426;-60
2022/12/14 01:06:59;;;;;;;14.05;9.05;;;-2.20;99.90;;;;;;5055693;28;20419;-60
2022/12/14 01:09:27;;;;;;;13.73;8.68;;;-2.30;1.00;;;;;;5064975;28;20411;-56
2022/12/14 01:11:53;;;;;;;13.40;9.05;;;-2.20;1.00;;;;;;5073124;28;20416;-60
2022/12/14 01:14:21;;;;;;;13.23;8.68;;;-2.20;99.90;;;;;;5073087;28;20891;-60
2022/12/14 01:16:48;;;;;;;14.90;9.57;;;-2.20;99.90;;;;;;5073198;28;20412;-60
2022/12/14 01:19:15;;;;;;;13.90;9.35;;;-2.10;99.90;;;;;;5073180;28;20419;-60
2022/12/14 01:21:43;;;;;;;14.32;9.50;;;-2.00;1.00;;;;;;5073283;28;20420;-60
2022/12/14 01:24:10;;;;;;;15.02;9.60;;;-2.00;1.00;;;;;;5073372;28;20407;-60
2022/12/14 01:26:39;;;;;;;14.32;9.70;;;-1.90;1.00;;;;;;5072713;28;20415;-59
2022/12/14 01:29:07;;;;;;;14.63;9.02;;;-1.90;1.00;;;;;;5072629;28;20407;-60
2022/12/14 01:31:36;;;;;;;13.70;9.43;;;-1.80;99.90;;;;;;5072854;28;20499;-60
2022/12/14 01:34:03;;;;;;;13.18;8.70;;;-1.80;99.90;;;;;;5072680;28;21054;-60
2022/12/14 01:36:32;;;;;;;15.25;9.50;;;-1.80;99.90;;;;;;5072510;28;20407;-61
2022/12/14 01:39:03;;;;;;;13.55;8.98;;;-1.80;99.90;;;;;;5061257;28;20959;-57
2022/12/14 01:41:32;;;;;;;14.63;9.50;;;-1.90;22.40;;;;;;5051545;28;20426;-60
2022/12/14 01:44:01;;;;;;;14.82;9.70;;;-2.30;1.00;;;;;;5051281;28;20496;-60
2022/12/14 01:46:32;;;;;;;15.38;9.65;;;-2.30;99.90;;;;;;5052366;28;20892;-60
2022/12/14 01:49:04;;;;;;;14.05;9.05;;;-2.30;99.90;;;;;;5052246;28;20459;-60
2022/12/14 01:51:32;;;;;;;15.60;9.70;;;-2.50;8.60;;;;;;5052817;28;20421;-59
2022/12/14 01:54:02;;;;;;;15.88;10.27;;;-2.70;96.80;;;;;;5052636;28;20417;-61
2022/12/14 01:56:31;;;;;;;15.82;10.52;;;-2.80;1.00;;;;;;5051927;28;20888;-60
2022/12/14 01:59:02;;;;;;;15.40;10.27;;;-2.80;99.90;;;;;;5052024;28;20409;-59
2022/12/14 02:01:29;;;;;;;16.60;10.35;;;-2.80;99.90;;;;;;5052404;28;20418;-60
2022/12/14 02:03:56;;;;;;;17.45;10.40;;;-2.90;99.90;;;;;;5052356;28;20463;-58
2022/12/14 02:06:26;;;;;;;17.98;11.25;;;-3.00;1.00;;;;;;5052153;28;20418;-60
2022/12/14 02:08:54;;;;;;;17.48;10.98;;;-3.00;1.00;;;;;;5062299;28;20840;-60
2022/12/14 02:11:33;;;;;;;18.73;10.27;;;-3.00;1.00;;;;;;5072091;28;20414;-60
2022/12/14 02:13:59;;;;;;;17.52;10.07;;;-2.70;1.00;;;;;;5072139;28;20423;-60
2022/12/14 02:16:26;;;;;;;14.55;9.68;;;-2.70;99.90;;;;;;5071403;28;20419;-60
2022/12/14 02:18:53;;;;;;;14.90;9.18;;;-2.70;99.90;;;;;;5071870;28;20416;-60
2022/12/14 02:21:24;;;;;;;16.08;9.52;;;-2.60;99.90;;;;;;5072072;28;20416;-60
2022/12/14 02:24:34;;;;;;;14.30;9.40;;;-2.60;99.90;;;;;;5071756;28;20404;-60
2022/12/14 02:27:23;;;;;;;13.40;9.10;;;-2.50;19.90;;;;;;5071650;28;20483;-60
2022/12/14 02:30:04;;;;;;;14.10;8.60;;;-2.40;99.90;;;;;;5072067;28;20419;-56
2022/12/14 02:32:59;;;;;;;14.52;8.98;;;-2.40;99.90;;;;;;5072183;28;20420;-59
2022/12/14 02:35:37;;;;;;;13.93;9.13;;;-2.30;99.90;;;;;;5066431;28;20427;-60
2022/12/14 02:38:15;;;;;;;14.18;9.00;;;-2.20;1.00;;;;;;5063047;28;20411;-60
2022/12/14 02:40:57;;;;;;;14.02;9.38;;;-2.10;99.90;;;;;;5054463;28;20421;-59
2022/12/14 02:43:30;;;;;;;14.03;9.47;;;-2.20;99.90;;;;;;5052387;28;20471;-60
2022/12/14 02:46:06;;;;;;;13.05;8.90;;;-2.80;99.90;;;;;;5051570;28;20436;-59
2022/12/14 02:48:39;;;;;;;14.63;8.88;;;-3.00;99.90;;;;;;5051783;28;20538;-61
2022/12/14 02:51:17;;;;;;;13.70;9.50;;;-3.30;1.00;;;;;;5051618;28;20421;-60
2022/12/14 02:53:48;;;;;;;14.75;9.40;;;-3.40;99.90;;;;;;5051228;28;20428;-60
2022/12/14 02:56:19;;;;;;;14.80;8.85;;;-3.40;99.90;;;;;;5050989;28;20777;-59
2022/12/14 02:58:49;;;;;;;14.48;9.50;;;-3.30;1.00;;;;;;5051362;28;20413;-58
2022/12/14 03:01:20;;;;;;;12.27;8.27;;;-3.40;1.00;;;;;;5051162;28;20428;-58
2022/12/14 03:03:47;;;;;;;14.75;9.63;;;-3.50;1.00;;;;;;5051432;28;20966;-56
2022/12/14 03:06:16;;;;;;;16.00;9.47;;;-3.50;44.10;;;;;;5050846;28;20892;-59
2022/12/14 03:08:45;;;;;;;14.80;10.10;;;-3.50;99.90;;;;;;5060037;28;20437;-57
2022/12/14 03:11:16;;;;;;;14.15;9.07;;;-3.50;99.90;;;;;;5071103;28;20416;-57
2022/12/14 03:13:48;;;;;;;15.43;9.45;;;-3.50;99.90;;;;;;5071012;28;20465;-60
2022/12/14 03:16:19;;;;;;;14.45;9.00;;;-3.50;99.90;;;;;;5070774;28;20415;-60
2022/12/14 03:18:56;;;;;;;13.50;9.35;;;-3.40;99.90;;;;;;5070930;28;20952;-61
2022/12/14 03:21:27;;;;;;;17.35;10.15;;;-3.40;99.90;;;;;;5070705;28;20422;-60
2022/12/14 03:23:56;;;;;;;14.25;9.20;;;-3.50;99.90;;;;;;5071018;28;20407;-60
2022/12/14 03:26:27;;;;;;;13.32;8.77;;;-3.50;99.90;;;;;;5070450;28;20416;-60
2022/12/14 03:28:58;;;;;;;13.75;9.23;;;-3.50;99.90;;;;;;5071040;28;20431;-60
2022/12/14 03:31:33;;;;;;;14.45;9.27;;;-3.50;99.90;;;;;;5070362;28;20473;-60
2022/12/14 03:34:03;;;;;;;13.95;8.93;;;-3.50;99.90;;;;;;5070670;28;20415;-60
2022/12/14 03:36:35;;;;;;;14.30;9.70;;;-3.40;99.90;;;;;;5070435;28;20420;-60
2022/12/14 03:39:06;;;;;;;12.23;8.48;;;-3.50;99.90;;;;;;5059184;28;20417;-60
2022/12/14 03:41:44;;;;;;;13.57;8.93;;;-3.50;99.90;;;;;;5050941;28;20413;-60
2022/12/14 03:44:22;;;;;;;13.30;8.63;;;-3.40;99.90;;;;;;5050767;28;20405;-60
2022/12/14 03:46:55;;;;;;;14.52;9.13;;;-3.40;99.90;;;;;;5050205;28;20417;-61
2022/12/14 03:49:36;;;;;;;13.23;8.82;;;-3.40;99.90;;;;;;5050502;28;20844;-59
2022/12/14 03:52:08;;;;;;;13.70;9.15;;;-3.60;99.90;;;;;;5050701;28;20417;-60
2022/12/14 03:54:44;;;;;;;14.27;8.88;;;-3.50;99.90;;;;;;5050572;28;20417;-60
2022/12/14 03:57:19;;;;;;;14.33;8.80;;;-3.50;99.90;;;;;;5050244;28;20417;-60
2022/12/14 03:59:53;;;;;;;12.02;8.27;;;-3.60;99.90;;;;;;5050481;28;20926;-60
2022/12/14 04:02:25;;;;;;;10.93;7.72;;;-3.60;99.90;;;;;;5050636;28;20428;-59
2022/12/14 04:04:57;;;;;;;11.93;8.40;;;-3.60;99.90;;;;;;5051740;28;20416;-60
2022/12/14 04:07:34;;;;;;;12.75;7.82;;;-3.50;99.90;;;;;;5060144;28;20481;-60
2022/12/14 04:18:55;;;;;;;14.98;8.38;;;-3.50;99.90;;;;;;5066190;28;20941;-58
2022/12/14 04:21:39;;;;;;;12.82;8.20;;;-3.40;95.20;;;;;;5011746;28;20419;-60
2022/12/14 04:27:00;;;;;;;11.43;7.07;;;-3.20;6.50;;;;;;5073747;28;20407;-60
2022/12/14 04:32:20;;;;;;;11.43;6.83;;;-3.10;1.00;;;;;;5074037;28;20522;-60
2022/12/14 04:34:51;;;;;;;10.07;6.85;;;-3.10;1.00;;;;;;5074134;28;20494;-58
2022/12/14 04:37:22;;;;;;;10.65;6.68;;;-2.80;1.00;;;;;;5068109;28;20796;-60
2022/12/14 04:39:53;;;;;;;9.00;6.30;;;-2.70;1.00;;;;;;5062093;28;20413;-60
2022/12/14 04:42:23;;;;;;;10.25;6.60;;;-2.60;99.90;;;;;;5053819;28;20409;-60
2022/12/14 04:44:54;;;;;;;10.55;6.57;;;-2.60;1.00;;;;;;5053796;28;20409;-60
2022/12/14 04:47:26;;;;;;;9.55;6.50;;;-2.70;99.90;;;;;;5053701;28;20421;-60
2022/12/14 04:50:00;;;;;;;9.65;6.40;;;-2.90;16.90;;;;;;5054011;28;20413;-60
2022/12/14 04:52:31;;;;;;;11.60;7.22;;;-3.10;1.00;;;;;;5053886;28;20413;-60
2022/12/14 04:55:02;;;;;;;11.45;7.00;;;-3.20;1.00;;;;;;5053584;28;20417;-60
2022/12/14 04:57:35;;;;;;;10.93;6.75;;;-3.10;99.90;;;;;;5053028;28;20912;-60
2022/12/14 05:00:03;;;;;;;10.20;6.72;;;-3.10;99.90;;;;;;5053614;28;20950;-60
2022/12/14 05:02:42;;;;;;;11.18;7.03;;;-2.90;99.90;;;;;;5053225;28;20436;-60
2022/12/14 05:05:14;;;;;;;9.27;6.72;;;-2.80;99.90;;;;;;5053646;28;20413;-60
2022/12/14 05:07:49;;;;;;;11.18;7.35;;;-2.70;99.90;;;;;;5060968;28;20771;-60
2022/12/14 05:10:20;;;;;;;12.77;7.70;;;-2.80;99.90;;;;;;5066782;28;20467;-60
2022/12/14 05:12:53;;;;;;;13.05;8.10;;;-2.90;99.90;;;;;;5072992;28;20429;-60
2022/12/14 05:15:24;;;;;;;11.50;7.45;;;-3.00;1.00;;;;;;5073240;28;20943;-59
2022/12/14 05:17:52;;;;;;;11.20;7.30;;;-2.80;1.00;;;;;;5072780;28;20427;-60
2022/12/14 05:20:22;;;;;;;12.52;7.55;;;-2.80;99.90;;;;;;5073227;28;20415;-60
2022/12/14 05:22:50;;;;;;;13.37;7.80;;;-2.80;1.00;;;;;;5073112;28;20460;-60
2022/12/14 05:25:17;;;;;;;16.27;8.60;;;-2.80;1.00;;;;;;5073105;28;20419;-60
2022/12/14 05:27:43;;;;;;;13.70;8.47;;;-2.90;1.00;;;;;;5072779;28;20408;-60
2022/12/14 05:30:11;;;;;;;14.07;8.80;;;-2.90;1.00;;;;;;5073066;28;20890;-60
2022/12/14 05:32:38;;;;;;;15.65;8.38;;;-3.10;1.00;;;;;;5073093;28;20494;-60
2022/12/14 05:35:07;;;;;;;15.52;8.85;;;-3.20;43.00;;;;;;5072925;28;20423;-60
2022/12/14 05:37:35;;;;;;;15.10;8.00;;;-3.10;99.90;;;;;;5064981;28;20429;-60
2022/12/14 05:40:02;;;;;;;15.60;9.10;;;-3.30;99.90;;;;;;5060873;28;20912;-60
2022/12/14 05:42:28;;;;;;;16.42;9.00;;;-3.30;99.90;;;;;;5052754;28;20413;-60
2022/12/14 05:44:55;;;;;;;15.10;8.18;;;-3.20;99.90;;;;;;5052670;28;20414;-59
2022/12/14 05:47:22;;;;;;;12.40;7.80;;;-3.10;99.90;;;;;;5065874;28;20469;-61
2022/12/14 05:49:48;;;;;;;13.73;8.57;;;-3.30;99.90;;;;;;5065886;28;20434;-60
2022/12/14 05:52:15;;;;;;;14.15;7.93;;;-3.30;99.90;;;;;;5062727;28;20422;-59
2022/12/14 05:54:43;;;;;;;13.65;7.95;;;-3.00;99.90;;;;;;5054533;28;20479;-60
2022/12/14 05:57:10;;;;;;;14.98;7.93;;;-2.80;99.90;;;;;;5062495;28;20827;-60
2022/12/14 05:59:37;;;;;;;13.68;7.88;;;-2.70;99.90;;;;;;5070540;28;20465;-61
2022/12/14 06:02:04;;;;;;;14.77;7.63;;;-2.60;99.90;;;;;;5075021;28;20420;-60
2022/12/14 06:04:30;;;;;;;12.85;7.95;;;-2.50;99.90;;;;;;5074499;28;20485;-61
2022/12/14 06:06:57;;;;;;;12.38;7.78;;;-2.40;99.90;;;;;;5071509;28;21075;-60
2022/12/14 06:09:24;;;;;;;12.68;7.55;;;-2.30;99.90;;;;;;5062166;28;20618;-61
2022/12/14 06:11:52;;;;;;;12.02;7.70;;;-2.10;4.80;;;;;;5054290;28;20769;-60
2022/12/14 06:14:19;;;;;;;13.75;7.95;;;-2.20;1.00;;;;;;5053911;28;20428;-60
2022/12/14 06:16:46;;;;;;;12.38;7.68;;;-2.10;1.00;;;;;;5052675;28;20409;-57
2022/12/14 06:19:14;;;;;;;13.05;7.55;;;-2.00;99.90;;;;;;5053564;28;20436;-61
2022/12/14 06:21:42;;;;;;;14.43;8.38;;;-2.00;99.90;;;;;;5053993;28;20417;-60
2022/12/14 06:24:10;;;;;;;12.57;7.70;;;-2.10;99.90;;;;;;5054472;28;20892;-60
2022/12/14 06:26:39;;;;;;;12.65;8.27;;;-2.10;99.90;;;;;;5053652;28;20444;-60
2022/12/14 06:29:11;;;;;;;12.45;7.40;;;-2.10;99.90;;;;;;5060986;28;20457;-62
2022/12/14 06:31:38;;;;;;;13.38;7.75;;;-2.20;99.90;;;;;;5067400;28;20485;-61
2022/12/14 06:34:04;;;;;;;14.23;7.60;;;-2.40;99.90;;;;;;5053946;28;20508;-63
2022/12/14 06:36:34;;;;;;;11.20;7.57;;;-2.30;99.90;;;;;;5058638;28;20511;-57
2022/12/14 06:39:03;;;;;;;11.30;7.47;;;-2.10;99.90;;;;;;5061671;28;20411;-60
2022/12/14 06:41:30;;;;;;;11.30;7.32;;;-2.00;99.90;;;;;;5062822;28;20468;-61
2022/12/14 06:43:57;;;;;;;11.98;7.30;;;-1.90;99.90;;;;;;5070381;28;20412;-58
2022/12/14 06:46:25;;;;;;;11.77;7.10;;;-1.90;99.90;;;;;;5070564;28;20416;-60
2022/12/14 06:48:54;;;;;;;10.75;6.95;;;-1.80;99.90;;;;;;5067052;28;20423;-61
2022/12/14 06:51:22;;;;;;;12.90;7.15;;;-1.90;99.90;;;;;;5058810;28;20421;-62
2022/12/14 06:53:50;;;;;;;9.60;6.20;;;-1.80;99.90;;;;;;5058210;28;20413;-62
2022/12/14 06:56:18;;;;;;;11.43;6.93;;;-1.90;99.90;;;;;;5049572;28;20821;-62
2022/12/14 06:58:46;;;;;;;12.30;6.75;;;-2.00;99.90;;;;;;5050036;28;20420;-62
2022/12/14 07:01:16;;;;;;;12.65;6.82;;;-2.00;99.90;;;;;;5055188;28;20415;-63
2022/12/14 07:03:47;;;;;;;14.05;7.10;;;-1.90;1.00;;;;;;5062372;28;20434;-61
2022/12/14 07:06:14;;;;;;;12.18;7.15;;;-1.90;99.90;;;;;;5069799;28;21147;-63
2022/12/14 07:08:41;;;;;;;13.30;7.82;;;-1.80;99.90;;;;;;5062059;28;20794;-63
2022/12/14 07:11:10;;;;;;;15.10;8.25;;;-1.90;1.00;;;;;;5058221;28;20544;-63
2022/12/14 07:13:38;;;;;;;17.57;9.10;;;-1.90;1.00;;;;;;5049833;28;20417;-63
2022/12/14 07:16:06;;;;;;;15.77;8.65;;;-1.80;99.90;;;;;;5049208;28;20444;-65
2022/12/14 07:18:34;;;;;;;19.17;8.82;;;-1.70;99.90;;;;;;5062124;28;20408;-63
2022/12/14 07:21:04;;;;;;;14.63;8.13;;;-1.60;99.90;;;;;;5050302;28;20471;-64
2022/12/14 07:23:32;;;;;;;17.35;8.93;;;-1.60;64.60;;;;;;5049554;28;20421;-67
2022/12/14 07:26:04;;;;;;;14.13;7.30;;;-1.80;18.20;;;;;;5049820;28;20800;-65
2022/12/14 07:28:31;;;;;;;13.18;7.60;;;-1.80;99.90;;;;;;5049718;28;20831;-66
2022/12/14 07:30:59;;;;;;;12.35;7.30;;;-2.00;71.80;;;;;;5050465;28;20754;-65
2022/12/14 07:33:27;;;;;;;11.43;7.03;;;-1.80;99.90;;;;;;5049589;28;20409;-65
2022/12/14 07:36:03;;;;;;;11.98;7.32;;;-1.70;99.90;;;;;;5049611;28;20417;-63
2022/12/14 07:38:29;;;;;;;10.73;6.78;;;-1.80;99.90;;;;;;5057818;28;20432;-64
2022/12/14 07:41:02;;;;;;;13.45;6.82;;;-1.80;99.90;;;;;;5067787;28;20416;-61
2022/12/14 07:43:28;;;;;;;11.47;7.33;;;-1.60;99.90;;;;;;5069731;28;20994;-61
2022/12/14 07:46:00;;;;;;;12.07;7.68;;;-1.50;99.90;;;;;;5069299;28;20415;-62
2022/12/14 07:48:27;;;;;;;12.13;7.80;;;-1.50;99.90;;;;;;5069325;28;20416;-62
2022/12/14 07:50:53;;;;;;;12.52;7.28;;;-1.60;1.00;;;;;;5058559;28;20418;-62
2022/12/14 07:53:21;;;;;;;13.70;7.75;;;-1.40;1.00;;;;;;5069472;28;20415;-61
2022/12/14 07:55:48;;;;;;;13.20;8.13;;;-1.40;1.00;;;;;;5070159;28;20443;-61
2022/12/14 07:58:15;;;;;;;17.38;8.05;;;-1.30;1.00;;;;;;5069349;28;20469;-62
2022/12/14 08:00:41;;;;;;;15.40;7.65;;;-1.20;1.00;;;;;;5069818;28;20411;-61
2022/12/14 08:03:08;;;;;;;12.93;7.32;;;-1.10;99.90;;;;;;5069140;28;20418;-61
2022/12/14 08:05:38;;;;;;;14.57;7.80;;;-1.20;99.90;;;;;;5069522;28;20423;-63
2022/12/14 08:08:05;;;;;;;13.10;7.65;;;-1.30;99.90;;;;;;5069040;28;20411;-62
2022/12/14 08:10:33;;;;;;;15.70;8.52;;;-1.20;99.90;;;;;;5069740;28;20841;-62
2022/12/14 08:13:00;;;;;;;13.77;8.77;;;-1.50;99.90;;;;;;5069482;28;20408;-62
2022/12/14 08:15:26;;;;;;;18.38;9.18;;;-2.10;99.90;;;;;;5069418;28;20409;-60
2022/12/14 08:17:53;;;;;;;16.05;9.15;;;-2.40;1.00;;;;;;5069386;28;20423;-59
2022/12/14 08:20:20;;;;;;;17.00;9.07;;;-2.40;1.00;;;;;;5068998;28;20825;-60
2022/12/14 08:22:46;;;;;;;14.75;8.80;;;-2.30;31.50;;;;;;5069344;28;20411;-60
2022/12/14 08:25:13;;;;;;;18.13;9.57;;;-2.30;76.50;;;;;;5069181;28;20829;-62
2022/12/14 08:27:41;;;;;;;14.23;8.73;;;-2.50;99.90;;;;;;5060799;28;20424;-60
2022/12/14 08:30:09;;;;;;;15.30;8.82;;;-2.70;99.90;;;;;;5056890;28;20815;-63
2022/12/14 08:32:36;;;;;;;14.40;8.43;;;-2.60;99.90;;;;;;5049232;28;20417;-62
2022/12/14 08:35:02;;;;;;;16.55;9.40;;;-2.60;99.90;;;;;;5052574;28;20423;-61
2022/12/14 08:37:29;;;;;;;15.13;8.82;;;-2.50;99.90;;;;;;5062556;28;20415;-62
2022/12/14 08:39:56;;;;;;;16.73;9.38;;;-2.40;99.90;;;;;;5058807;28;20418;-61
2022/12/14 08:42:22;;;;;;;17.60;9.63;;;-2.40;99.90;;;;;;5049086;28;20758;-62
2022/12/14 08:44:50;;;;;;;15.52;9.68;;;-2.40;1.00;;;;;;5049233;28;20421;-60
2022/12/14 08:47:17;;;;;;;17.30;10.02;;;-2.50;1.00;;;;;;5048656;28;20417;-61
2022/12/14 08:49:44;;;;;;;17.95;10.43;;;-2.50;1.00;;;;;;5049561;28;20429;-60
2022/12/14 08:52:10;;;;;;;19.27;10.25;;;-2.60;1.00;;;;;;5052447;28;20424;-58
2022/12/14 08:54:37;;;;;;;13.77;9.40;;;-2.60;1.00;;;;;;5052933;28;20418;-63
2022/12/14 08:57:04;;;;;;;18.65;9.98;;;-2.70;1.00;;;;;;5052662;28;20459;-62
2022/12/14 08:59:31;;;;;;;14.93;9.43;;;-2.60;1.00;;;;;;5052444;28;20479;-63
2022/12/14 09:01:59;;;;;;;16.77;9.43;;;-2.60;1.00;;;;;;5052940;28;20509;-62
2022/12/14 09:04:26;;;;;;;16.48;9.80;;;-2.60;1.00;;;;;;5052335;28;20424;-61
2022/12/14 09:06:52;;;;;;;18.10;9.48;;;-2.60;1.00;;;;;;5054021;28;20413;-62
2022/12/14 09:09:19;;;;;;;17.70;9.70;;;-2.40;1.00;;;;;;5063819;28;20423;-62
2022/12/14 09:11:46;;;;;;;22.23;10.77;;;-2.50;1.00;;;;;;5072738;28;20469;-62
2022/12/14 09:14:12;;;;;;;16.63;9.45;;;-2.50;1.00;;;;;;5072234;28;20464;-62
2022/12/14 09:16:39;;;;;;;19.05;9.93;;;-2.60;1.00;;;;;;5071885;28;20422;-62
2022/12/14 09:19:07;;;;;;;15.98;8.70;;;-2.40;1.00;;;;;;5072490;28;20438;-61
2022/12/14 09:21:34;;;;;;;17.80;9.55;;;-2.20;1.00;;;;;;5072239;28;20450;-63
2022/12/14 09:24:01;;;;;;;19.73;10.63;;;-2.00;99.90;;;;;;5072618;28;20503;-60
2022/12/14 09:26:28;;;;;;;17.73;9.93;;;-2.10;99.90;;;;;;5071518;28;20439;-61
2022/12/14 09:28:56;;;;;;;18.52;10.20;;;-2.10;99.90;;;;;;5072103;28;20411;-61
2022/12/14 09:31:24;;;;;;;18.98;10.57;;;-2.20;99.90;;;;;;5072399;28;20411;-61
2022/12/14 09:33:51;;;;;;;20.63;10.60;;;-2.30;99.90;;;;;;5071969;28;20441;-64
2022/12/14 09:36:21;;;;;;;23.63;10.68;;;-2.40;99.90;;;;;;5072016;28;20415;-65
2022/12/14 09:38:49;;;;;;;18.27;10.45;;;-2.40;1.00;;;;;;5062026;28;20411;-65
2022/12/14 09:41:24;;;;;;;21.50;11.38;;;-2.40;1.00;;;;;;5052122;28;20425;-66
2022/12/14 09:43:58;;;;;;;22.30;11.55;;;-2.40;1.00;;;;;;5051585;28;20421;-65
2022/12/14 09:46:37;;;;;;;22.25;11.30;;;-2.30;1.00;;;;;;5052043;28;20413;-64
2022/12/14 09:49:06;;;;;;;20.48;11.73;;;-2.20;1.00;;;;;;5051750;28;20483;-62
2022/12/14 09:51:36;;;;;;;21.50;11.27;;;-2.10;1.00;;;;;;5051732;28;20409;-61
2022/12/14 09:54:08;;;;;;;21.33;11.55;;;-2.10;99.90;;;;;;5051365;28;20421;-62
2022/12/14 09:56:37;;;;;;;23.85;11.70;;;-1.90;99.90;;;;;;5057448;28;20488;-61
2022/12/14 09:59:05;;;;;;;22.85;12.77;;;-1.80;99.90;;;;;;5059163;28;20417;-62
2022/12/14 10:02:00;;;;;;;22.67;13.13;;;-1.90;99.90;;;;;;5059571;28;20492;-59
2022/12/14 10:04:43;;;;;;;28.50;13.80;;;-1.90;99.90;;;;;;5049516;28;20428;-60
2022/12/14 10:07:18;;;;;;;25.23;13.48;;;-2.00;99.90;;;;;;5055077;28;20415;-59
2022/12/14 10:09:55;;;;;;;24.33;12.88;;;-2.10;99.90;;;;;;5063174;28;20432;-60
2022/12/14 10:12:32;;;;;;;24.75;12.55;;;-1.90;99.90;;;;;;5071110;28;20473;-60
2022/12/14 10:15:09;;;;;;;24.37;13.13;;;-1.60;99.90;;;;;;5071440;28;20431;-59
2022/12/14 10:18:02;;;;;;;23.75;12.63;;;-1.30;99.90;;;;;;5070460;28;20469;-58
2022/12/14 10:20:35;;;;;;;24.38;14.15;;;-1.20;99.90;;;;;;5071588;28;20415;-58
2022/12/14 10:23:04;;;;;;;22.90;12.73;;;-1.00;99.90;;;;;;5070729;28;20484;-59
2022/12/14 10:25:32;;;;;;;22.45;12.82;;;-1.00;99.90;;;;;;5071250;28;20752;-61
2022/12/14 10:28:03;;;;;;;20.65;12.32;;;-1.10;99.90;;;;;;5069916;28;20895;-62
2022/12/14 10:30:30;;;;;;;25.23;13.00;;;-1.10;99.90;;;;;;5058164;28;20920;-61
2022/12/14 10:33:05;;;;;;;21.80;13.52;;;-1.10;99.90;;;;;;5062005;28;20461;-65
2022/12/14 10:35:38;;;;;;;27.98;13.40;;;-1.20;99.90;;;;;;5062594;28;20431;-61
2022/12/14 10:38:17;;;;;;;22.45;12.75;;;-1.10;99.90;;;;;;5062689;28;20469;-64
2022/12/14 10:40:49;;;;;;;21.83;12.45;;;-1.20;99.90;;;;;;5053555;28;20827;-64
2022/12/14 10:43:29;;;;;;;19.90;12.10;;;-1.30;99.90;;;;;;5050557;28;20949;-64
2022/12/14 10:46:12;;;;;;;22.65;12.80;;;-1.20;99.90;;;;;;5050246;28;20448;-64
2022/12/14 10:48:45;;;;;;;20.48;12.82;;;-1.10;99.90;;;;;;5052867;28;20488;-63
2022/12/14 10:51:18;;;;;;;22.08;12.25;;;-1.00;78.60;;;;;;5063127;28;20538;-60
2022/12/14 10:53:52;;;;;;;20.73;12.40;;;-0.80;81.00;;;;;;5070606;28;20578;-64
2022/12/14 10:56:25;;;;;;;22.42;12.73;;;-0.50;99.90;;;;;;5070436;28;20435;-63
2022/12/14 10:59:15;;;;;;;18.67;11.45;;;0.30;1.00;;;;;;5070832;28;20782;-63
2022/12/14 11:01:42;;;;;;;22.02;11.45;;;0.80;1.00;;;;;;5070690;28;20416;-62
2022/12/14 11:04:14;;;;;;;21.42;12.38;;;1.20;99.90;;;;;;5069660;28;20844;-62
2022/12/14 11:06:40;;;;;;;18.70;11.35;;;1.40;99.90;;;;;;5070232;28;20968;-62
2022/12/14 11:09:20;;;;;;;20.63;11.35;;;1.60;1.00;;;;;;5061586;28;20404;-61
2022/12/14 11:11:47;;;;;;;20.48;11.70;;;1.60;1.00;;;;;;5070995;28;20400;-62
2022/12/14 11:14:18;;;;;;;20.73;11.88;;;1.60;1.00;;;;;;5064437;28;20893;-62
2022/12/14 11:16:44;;;;;;;21.17;11.38;;;1.20;67.60;;;;;;5058261;28;20421;-65
2022/12/14 11:19:16;;;;;;;18.13;11.48;;;1.30;99.90;;;;;;5050137;28;20843;-64
2022/12/14 11:21:43;;;;;;;19.27;10.55;;;0.90;99.90;;;;;;5059013;28;20417;-65
2022/12/14 11:24:22;;;;;;;16.38;11.15;;;0.90;99.90;;;;;;5069722;28;20532;-64
2022/12/14 11:26:51;;;;;;;15.75;10.60;;;1.00;99.90;;;;;;5069479;28;20491;-64
2022/12/14 11:29:23;;;;;;;16.25;9.90;;;0.50;1.00;;;;;;5062764;28;20414;-61
2022/12/14 11:31:52;;;;;;;15.00;9.30;;;0.10;1.00;;;;;;5061109;28;20430;-62
2022/12/14 11:34:23;;;;;;;14.93;10.13;;;0.00;1.00;;;;;;5069723;28;20447;-61
2022/12/14 11:36:50;;;;;;;15.07;10.02;;;0.30;63.70;;;;;;5067560;28;20959;-61
2022/12/14 11:39:22;;;;;;;15.82;10.40;;;0.50;1.00;;;;;;5057981;28;20918;-62
2022/12/14 11:41:51;;;;;;;15.40;9.55;;;0.60;1.00;;;;;;5049634;28;20776;-61
2022/12/14 11:44:23;;;;;;;14.15;8.77;;;0.60;1.00;;;;;;5052672;28;20415;-61
2022/12/14 11:46:54;;;;;;;12.38;9.10;;;0.30;1.00;;;;;;5061369;28;20446;-65
2022/12/14 11:49:24;;;;;;;13.68;9.07;;;0.20;1.00;;;;;;5069678;28;20411;-59
2022/12/14 11:51:57;;;;;;;14.15;9.30;;;0.00;99.90;;;;;;5069809;28;20430;-60
2022/12/14 11:54:25;;;;;;;14.90;8.90;;;0.30;7.70;;;;;;5068806;28;20423;-60
2022/12/14 11:56:55;;;;;;;15.50;10.02;;;0.60;26.50;;;;;;5069546;28;20422;-60
2022/12/14 11:59:25;;;;;;;15.80;9.23;;;0.80;7.10;;;;;;5069682;28;20469;-60
2022/12/14 12:01:54;;;;;;;13.43;9.48;;;1.00;1.00;;;;;;5069231;28;20407;-60
2022/12/14 12:04:21;;;;;;;14.45;8.90;;;0.70;1.00;;;;;;5068944;28;20469;-65
2022/12/14 12:06:47;;;;;;;13.10;9.20;;;0.70;1.00;;;;;;5068297;28;20411;-60
2022/12/14 12:09:29;;;;;;;13.32;9.07;;;0.50;1.00;;;;;;5057652;28;20796;-60
2022/12/14 12:11:56;;;;;;;11.52;8.45;;;0.60;1.00;;;;;;5049739;28;20448;-61
2022/12/14 12:14:30;;;;;;;13.88;9.57;;;0.50;99.90;;;;;;5049266;28;20413;-62
2022/12/14 12:16:56;;;;;;;14.27;9.23;;;0.70;99.90;;;;;;5048948;28;20421;-60
2022/12/14 12:19:27;;;;;;;13.85;9.25;;;0.80;99.90;;;;;;5049746;28;20427;-61
2022/12/14 12:21:55;;;;;;;13.13;9.13;;;0.80;99.90;;;;;;5049111;28;20420;-61
2022/12/14 12:24:26;;;;;;;12.07;9.15;;;0.80;99.90;;;;;;5055720;28;20417;-62
2022/12/14 12:26:56;;;;;;;13.25;8.82;;;0.80;99.90;;;;;;5060082;28;20908;-62
2022/12/14 12:29:27;;;;;;;13.80;9.03;;;1.00;1.00;;;;;;5053629;28;20472;-62
2022/12/14 12:31:57;;;;;;;13.23;8.93;;;1.10;1.00;;;;;;5052883;28;20425;-62
2022/12/14 12:34:28;;;;;;;13.07;9.20;;;1.10;99.90;;;;;;5052803;28;20470;-62
2022/12/14 12:36:58;;;;;;;12.38;8.60;;;1.20;99.90;;;;;;5054969;28;20417;-61
2022/12/14 12:39:25;;;;;;;13.35;8.68;;;1.30;99.90;;;;;;5058501;28;20421;-62
2022/12/14 12:42:01;;;;;;;12.95;9.23;;;1.40;99.90;;;;;;5053337;28;20490;-62
2022/12/14 12:44:41;;;;;;;12.55;9.15;;;1.30;99.90;;;;;;5052277;28;20413;-63
2022/12/14 12:47:16;;;;;;;14.13;9.55;;;1.40;99.90;;;;;;5053055;28;20892;-63
2022/12/14 12:49:43;;;;;;;14.32;10.25;;;1.50;99.90;;;;;;5052094;28;21211;-64
2022/12/14 12:52:18;;;;;;;15.07;10.48;;;1.40;99.90;;;;;;5052991;28;20432;-64
2022/12/14 12:54:54;;;;;;;13.27;9.25;;;1.40;1.00;;;;;;5052863;28;20420;-65
2022/12/14 12:57:25;;;;;;;13.95;9.43;;;1.50;99.90;;;;;;5058532;28;20494;-63
2022/12/14 12:59:55;;;;;;;13.40;10.02;;;1.60;99.90;;;;;;5064110;28;20419;-61
2022/12/14 13:02:29;;;;;;;14.02;9.98;;;1.60;99.90;;;;;;5072606;28;20465;-60
2022/12/14 13:04:58;;;;;;;13.85;9.43;;;1.60;99.90;;;;;;5072659;28;20423;-60
2022/12/14 13:07:30;;;;;;;12.98;8.90;;;1.70;99.90;;;;;;5072257;28;20522;-60